sensor_id;sensor_type;location;lat;lon;timestamp;P1;durP1;ratioP1;P2;durP2;ratioP2
14858;SDS011;7521;51.700;6.874;2022-09-16T00:01:20;3.97;;;0.90;;
14858;SDS011;7521;51.700;6.874;2022-09-16T00:04:25;3.20;;;0.90;;
14858;SDS011;7521;51.700;6.874;2022-09-16T00:07:31;4.43;;;0.90;;
14858;SDS011;7521;51.700;6.874;2022-09-16T00:10:36;5.07;;;0.70;;
14858;SDS011;7521;51.700;6.874;2022-09-16T00:13:41;5.47;;;1.30;;
14858;SDS011;7521;51.700;6.874;2022-09-16T00:16:47;5.57;;;0.90;;
14858;SDS011;7521;51.700;6.874;2022-09-16T00:19:52;5.57;;;1.10;;
14858;SDS011;7521;51.700;6.874;2022-09-16T00:22:57;4.57;;;1.20;;
14858;SDS011;7521;51.700;6.874;2022-09-16T00:26:03;4.90;;;0.80;;
14858;SDS011;7521;51.700;6.874;2022-09-16T00:29:08;3.37;;;0.73;;
14858;SDS011;7521;51.700;6.874;2022-09-16T00:32:13;1.75;;;0.88;;
14858;SDS011;7521;51.700;6.874;2022-09-16T00:35:18;5.57;;;1.40;;
14858;SDS011;7521;51.700;6.874;2022-09-16T00:38:24;4.13;;;1.20;;
14858;SDS011;7521;51.700;6.874;2022-09-16T00:41:30;2.88;;;0.88;;
14858;SDS011;7521;51.700;6.874;2022-09-16T00:44:58;3.50;;;1.13;;
14858;SDS011;7521;51.700;6.874;2022-09-16T00:48:05;3.03;;;0.90;;
14858;SDS011;7521;51.700;6.874;2022-09-16T00:51:10;5.60;;;1.10;;
14858;SDS011;7521;51.700;6.874;2022-09-16T00:54:17;3.03;;;0.83;;
14858;SDS011;7521;51.700;6.874;2022-09-16T00:57:22;7.13;;;1.30;;
14858;SDS011;7521;51.700;6.874;2022-09-16T01:00:28;3.37;;;0.80;;
14858;SDS011;7521;51.700;6.874;2022-09-16T01:03:34;8.65;;;1.70;;
14858;SDS011;7521;51.700;6.874;2022-09-16T01:06:42;3.87;;;1.07;;
14858;SDS011;7521;51.700;6.874;2022-09-16T01:09:47;7.37;;;1.30;;
14858;SDS011;7521;51.700;6.874;2022-09-16T01:12:56;5.28;;;1.27;;
14858;SDS011;7521;51.700;6.874;2022-09-16T01:19:31;4.33;;;1.30;;
14858;SDS011;7521;51.700;6.874;2022-09-16T01:29:35;3.00;;;1.20;;
14858;SDS011;7521;51.700;6.874;2022-09-16T01:32:52;3.73;;;1.27;;
14858;SDS011;7521;51.700;6.874;2022-09-16T01:39:07;7.82;;;1.40;;
14858;SDS011;7521;51.700;6.874;2022-09-16T01:42:22;6.40;;;1.40;;
14858;SDS011;7521;51.700;6.874;2022-09-16T01:46:07;4.70;;;1.40;;
14858;SDS011;7521;51.700;6.874;2022-09-16T01:49:10;4.40;;;1.40;;
14858;SDS011;7521;51.700;6.874;2022-09-16T01:52:30;4.93;;;1.53;;
14858;SDS011;7521;51.700;6.874;2022-09-16T01:55:40;5.73;;;1.50;;
14858;SDS011;7521;51.700;6.874;2022-09-16T01:58:56;8.30;;;1.40;;
14858;SDS011;7521;51.700;6.874;2022-09-16T02:02:04;5.57;;;1.30;;
14858;SDS011;7521;51.700;6.874;2022-09-16T02:05:14;6.73;;;1.53;;
14858;SDS011;7521;51.700;6.874;2022-09-16T02:08:23;5.73;;;1.40;;
14858;SDS011;7521;51.700;6.874;2022-09-16T02:11:29;6.17;;;1.63;;
14858;SDS011;7521;51.700;6.874;2022-09-16T02:14:35;9.20;;;1.60;;
14858;SDS011;7521;51.700;6.874;2022-09-16T02:17:43;5.07;;;1.47;;
14858;SDS011;7521;51.700;6.874;2022-09-16T02:20:51;5.40;;;1.47;;
14858;SDS011;7521;51.700;6.874;2022-09-16T02:23:58;5.27;;;1.40;;
14858;SDS011;7521;51.700;6.874;2022-09-16T02:27:04;6.13;;;1.73;;
14858;SDS011;7521;51.700;6.874;2022-09-16T02:30:13;7.20;;;1.70;;
14858;SDS011;7521;51.700;6.874;2022-09-16T02:33:21;3.93;;;1.10;;
14858;SDS011;7521;51.700;6.874;2022-09-16T02:36:26;6.07;;;1.70;;
14858;SDS011;7521;51.700;6.874;2022-09-16T02:39:33;2.80;;;1.10;;
14858;SDS011;7521;51.700;6.874;2022-09-16T02:42:40;3.20;;;1.27;;
14858;SDS011;7521;51.700;6.874;2022-09-16T02:45:47;6.45;;;1.73;;
14858;SDS011;7521;51.700;6.874;2022-09-16T02:55:24;4.13;;;1.50;;
14858;SDS011;7521;51.700;6.874;2022-09-16T02:58:32;3.90;;;1.60;;
14858;SDS011;7521;51.700;6.874;2022-09-16T03:01:39;3.85;;;1.63;;
14858;SDS011;7521;51.700;6.874;2022-09-16T03:04:45;7.03;;;1.40;;
14858;SDS011;7521;51.700;6.874;2022-09-16T03:07:50;3.05;;;1.10;;
14858;SDS011;7521;51.700;6.874;2022-09-16T03:10:55;5.57;;;1.60;;
14858;SDS011;7521;51.700;6.874;2022-09-16T03:23:44;2.60;;;1.10;;
14858;SDS011;7521;51.700;6.874;2022-09-16T03:27:00;8.33;;;1.60;;
14858;SDS011;7521;51.700;6.874;2022-09-16T03:30:09;5.10;;;1.10;;
14858;SDS011;7521;51.700;6.874;2022-09-16T03:33:23;5.47;;;1.80;;
14858;SDS011;7521;51.700;6.874;2022-09-16T03:36:30;10.07;;;1.57;;
14858;SDS011;7521;51.700;6.874;2022-09-16T03:39:37;3.37;;;1.30;;
14858;SDS011;7521;51.700;6.874;2022-09-16T03:42:42;5.57;;;1.87;;
14858;SDS011;7521;51.700;6.874;2022-09-16T03:45:48;8.13;;;1.50;;
14858;SDS011;7521;51.700;6.874;2022-09-16T03:48:55;5.67;;;1.53;;
14858;SDS011;7521;51.700;6.874;2022-09-16T03:52:01;4.80;;;1.33;;
14858;SDS011;7521;51.700;6.874;2022-09-16T03:55:06;5.77;;;1.73;;
14858;SDS011;7521;51.700;6.874;2022-09-16T03:58:12;5.00;;;1.10;;
14858;SDS011;7521;51.700;6.874;2022-09-16T04:01:17;8.63;;;1.70;;
14858;SDS011;7521;51.700;6.874;2022-09-16T04:04:22;7.43;;;1.50;;
14858;SDS011;7521;51.700;6.874;2022-09-16T04:07:27;6.70;;;1.50;;
14858;SDS011;7521;51.700;6.874;2022-09-16T04:10:32;5.72;;;1.58;;
14858;SDS011;7521;51.700;6.874;2022-09-16T04:13:38;7.00;;;1.70;;
14858;SDS011;7521;51.700;6.874;2022-09-16T04:16:43;8.07;;;1.40;;
14858;SDS011;7521;51.700;6.874;2022-09-16T04:19:49;5.10;;;1.63;;
14858;SDS011;7521;51.700;6.874;2022-09-16T04:22:54;4.77;;;1.70;;
14858;SDS011;7521;51.700;6.874;2022-09-16T04:26:00;7.97;;;1.13;;
14858;SDS011;7521;51.700;6.874;2022-09-16T04:29:05;5.03;;;1.60;;
14858;SDS011;7521;51.700;6.874;2022-09-16T04:32:11;7.40;;;1.70;;
14858;SDS011;7521;51.700;6.874;2022-09-16T04:35:16;5.72;;;1.80;;
14858;SDS011;7521;51.700;6.874;2022-09-16T04:38:23;2.87;;;1.53;;
14858;SDS011;7521;51.700;6.874;2022-09-16T04:41:28;6.55;;;1.95;;
14858;SDS011;7521;51.700;6.874;2022-09-16T04:44:33;7.97;;;2.10;;
14858;SDS011;7521;51.700;6.874;2022-09-16T04:47:38;5.70;;;1.70;;
14858;SDS011;7521;51.700;6.874;2022-09-16T04:50:44;7.68;;;1.77;;
14858;SDS011;7521;51.700;6.874;2022-09-16T04:53:49;8.27;;;1.98;;
14858;SDS011;7521;51.700;6.874;2022-09-16T04:56:54;8.20;;;2.40;;
14858;SDS011;7521;51.700;6.874;2022-09-16T04:59:59;6.30;;;1.92;;
14858;SDS011;7521;51.700;6.874;2022-09-16T05:03:04;4.97;;;1.47;;
14858;SDS011;7521;51.700;6.874;2022-09-16T05:06:11;6.17;;;1.53;;
14858;SDS011;7521;51.700;6.874;2022-09-16T05:09:17;7.20;;;1.50;;
14858;SDS011;7521;51.700;6.874;2022-09-16T05:12:23;3.40;;;1.30;;
14858;SDS011;7521;51.700;6.874;2022-09-16T05:15:28;5.77;;;1.60;;
14858;SDS011;7521;51.700;6.874;2022-09-16T05:18:34;6.00;;;1.40;;
14858;SDS011;7521;51.700;6.874;2022-09-16T05:21:40;3.93;;;1.60;;
14858;SDS011;7521;51.700;6.874;2022-09-16T05:24:45;7.83;;;1.53;;
14858;SDS011;7521;51.700;6.874;2022-09-16T05:27:51;7.93;;;1.93;;
14858;SDS011;7521;51.700;6.874;2022-09-16T05:31:06;4.72;;;1.42;;
14858;SDS011;7521;51.700;6.874;2022-09-16T05:37:17;4.70;;;1.47;;
14858;SDS011;7521;51.700;6.874;2022-09-16T05:40:22;2.20;;;1.20;;
14858;SDS011;7521;51.700;6.874;2022-09-16T05:43:27;6.00;;;1.70;;
14858;SDS011;7521;51.700;6.874;2022-09-16T05:46:33;9.63;;;1.73;;
14858;SDS011;7521;51.700;6.874;2022-09-16T05:49:38;6.27;;;1.53;;
14858;SDS011;7521;51.700;6.874;2022-09-16T05:52:43;6.30;;;1.42;;
14858;SDS011;7521;51.700;6.874;2022-09-16T05:55:55;5.10;;;1.65;;
14858;SDS011;7521;51.700;6.874;2022-09-16T05:59:00;2.87;;;1.80;;
14858;SDS011;7521;51.700;6.874;2022-09-16T06:02:05;7.73;;;2.37;;
14858;SDS011;7521;51.700;6.874;2022-09-16T06:05:10;10.00;;;2.28;;
14858;SDS011;7521;51.700;6.874;2022-09-16T06:08:16;4.93;;;1.67;;
14858;SDS011;7521;51.700;6.874;2022-09-16T06:11:21;6.15;;;1.67;;
14858;SDS011;7521;51.700;6.874;2022-09-16T06:14:26;8.23;;;2.30;;
14858;SDS011;7521;51.700;6.874;2022-09-16T06:17:32;7.17;;;2.00;;
14858;SDS011;7521;51.700;6.874;2022-09-16T06:20:37;5.78;;;2.22;;
14858;SDS011;7521;51.700;6.874;2022-09-16T06:23:42;6.15;;;2.28;;
14858;SDS011;7521;51.700;6.874;2022-09-16T06:26:47;8.00;;;2.30;;
14858;SDS011;7521;51.700;6.874;2022-09-16T06:29:53;13.60;;;2.47;;
14858;SDS011;7521;51.700;6.874;2022-09-16T06:32:58;6.70;;;2.60;;
14858;SDS011;7521;51.700;6.874;2022-09-16T06:36:10;7.72;;;2.35;;
14858;SDS011;7521;51.700;6.874;2022-09-16T06:39:16;9.63;;;2.67;;
14858;SDS011;7521;51.700;6.874;2022-09-16T06:42:21;8.50;;;3.03;;
14858;SDS011;7521;51.700;6.874;2022-09-16T06:45:26;6.47;;;2.65;;
14858;SDS011;7521;51.700;6.874;2022-09-16T06:48:33;5.50;;;2.30;;
14858;SDS011;7521;51.700;6.874;2022-09-16T06:51:41;5.23;;;2.47;;
14858;SDS011;7521;51.700;6.874;2022-09-16T06:54:47;7.47;;;2.63;;
14858;SDS011;7521;51.700;6.874;2022-09-16T06:57:52;8.17;;;3.10;;
14858;SDS011;7521;51.700;6.874;2022-09-16T07:00:58;6.63;;;2.30;;
14858;SDS011;7521;51.700;6.874;2022-09-16T07:04:04;7.40;;;2.37;;
14858;SDS011;7521;51.700;6.874;2022-09-16T07:07:10;9.07;;;2.60;;
14858;SDS011;7521;51.700;6.874;2022-09-16T07:10:16;7.70;;;2.83;;
14858;SDS011;7521;51.700;6.874;2022-09-16T07:13:21;10.82;;;2.70;;
14858;SDS011;7521;51.700;6.874;2022-09-16T07:16:26;3.85;;;1.75;;
14858;SDS011;7521;51.700;6.874;2022-09-16T07:19:31;6.50;;;1.98;;
14858;SDS011;7521;51.700;6.874;2022-09-16T07:22:36;9.40;;;2.22;;
14858;SDS011;7521;51.700;6.874;2022-09-16T07:25:41;9.30;;;2.23;;
14858;SDS011;7521;51.700;6.874;2022-09-16T07:28:47;7.68;;;2.05;;
14858;SDS011;7521;51.700;6.874;2022-09-16T07:31:53;4.87;;;1.70;;
14858;SDS011;7521;51.700;6.874;2022-09-16T07:34:58;6.38;;;1.88;;
14858;SDS011;7521;51.700;6.874;2022-09-16T07:38:03;6.93;;;1.48;;
14858;SDS011;7521;51.700;6.874;2022-09-16T07:41:12;6.90;;;1.80;;
14858;SDS011;7521;51.700;6.874;2022-09-16T07:44:18;4.53;;;1.23;;
14858;SDS011;7521;51.700;6.874;2022-09-16T07:47:24;4.93;;;1.30;;
14858;SDS011;7521;51.700;6.874;2022-09-16T07:50:29;3.95;;;1.10;;
14858;SDS011;7521;51.700;6.874;2022-09-16T07:53:34;6.65;;;1.42;;
14858;SDS011;7521;51.700;6.874;2022-09-16T07:56:40;6.70;;;1.27;;
14858;SDS011;7521;51.700;6.874;2022-09-16T07:59:46;4.50;;;1.13;;
14858;SDS011;7521;51.700;6.874;2022-09-16T08:02:54;3.27;;;1.07;;
14858;SDS011;7521;51.700;6.874;2022-09-16T08:06:00;3.77;;;1.00;;
14858;SDS011;7521;51.700;6.874;2022-09-16T08:09:06;2.90;;;0.93;;
14858;SDS011;7521;51.700;6.874;2022-09-16T08:12:11;4.60;;;1.20;;
14858;SDS011;7521;51.700;6.874;2022-09-16T08:15:18;4.00;;;0.90;;
14858;SDS011;7521;51.700;6.874;2022-09-16T08:18:23;5.57;;;1.10;;
14858;SDS011;7521;51.700;6.874;2022-09-16T08:21:28;6.13;;;1.08;;
14858;SDS011;7521;51.700;6.874;2022-09-16T08:24:34;3.83;;;1.00;;
14858;SDS011;7521;51.700;6.874;2022-09-16T08:27:39;3.20;;;1.00;;
14858;SDS011;7521;51.700;6.874;2022-09-16T08:30:44;4.53;;;1.25;;
14858;SDS011;7521;51.700;6.874;2022-09-16T08:33:49;6.37;;;1.27;;
14858;SDS011;7521;51.700;6.874;2022-09-16T08:36:55;4.60;;;1.10;;
14858;SDS011;7521;51.700;6.874;2022-09-16T08:40:00;4.25;;;1.15;;
14858;SDS011;7521;51.700;6.874;2022-09-16T08:49:47;7.73;;;1.37;;
14858;SDS011;7521;51.700;6.874;2022-09-16T08:52:56;7.93;;;1.27;;
14858;SDS011;7521;51.700;6.874;2022-09-16T08:56:06;5.57;;;1.00;;
14858;SDS011;7521;51.700;6.874;2022-09-16T08:59:16;3.43;;;0.80;;
14858;SDS011;7521;51.700;6.874;2022-09-16T09:09:00;5.33;;;1.20;;
14858;SDS011;7521;51.700;6.874;2022-09-16T09:12:10;3.23;;;1.03;;
14858;SDS011;7521;51.700;6.874;2022-09-16T09:15:26;6.77;;;1.67;;
14858;SDS011;7521;51.700;6.874;2022-09-16T09:32:25;4.67;;;1.00;;
14858;SDS011;7521;51.700;6.874;2022-09-16T09:42:20;5.00;;;1.00;;
14858;SDS011;7521;51.700;6.874;2022-09-16T09:45:28;5.60;;;1.13;;
14858;SDS011;7521;51.700;6.874;2022-09-16T09:48:38;9.40;;;1.30;;
14858;SDS011;7521;51.700;6.874;2022-09-16T09:51:53;6.23;;;1.00;;
14858;SDS011;7521;51.700;6.874;2022-09-16T09:55:04;6.47;;;1.07;;
14858;SDS011;7521;51.700;6.874;2022-09-16T09:58:18;4.33;;;1.50;;
14858;SDS011;7521;51.700;6.874;2022-09-16T10:01:25;5.60;;;0.80;;
14858;SDS011;7521;51.700;6.874;2022-09-16T10:04:36;8.40;;;1.48;;
14858;SDS011;7521;51.700;6.874;2022-09-16T10:07:42;6.40;;;1.10;;
14858;SDS011;7521;51.700;6.874;2022-09-16T10:10:49;5.90;;;1.30;;
14858;SDS011;7521;51.700;6.874;2022-09-16T10:13:55;6.43;;;1.40;;
14858;SDS011;7521;51.700;6.874;2022-09-16T10:17:03;5.63;;;0.77;;
14858;SDS011;7521;51.700;6.874;2022-09-16T10:20:28;1.93;;;0.70;;
14858;SDS011;7521;51.700;6.874;2022-09-16T10:23:34;3.13;;;0.80;;
14858;SDS011;7521;51.700;6.874;2022-09-16T10:26:40;4.03;;;0.60;;
14858;SDS011;7521;51.700;6.874;2022-09-16T10:29:45;2.30;;;0.55;;
14858;SDS011;7521;51.700;6.874;2022-09-16T10:36:01;6.23;;;0.90;;
14858;SDS011;7521;51.700;6.874;2022-09-16T10:39:16;6.77;;;1.00;;
14858;SDS011;7521;51.700;6.874;2022-09-16T10:42:25;7.87;;;1.10;;
14858;SDS011;7521;51.700;6.874;2022-09-16T10:45:35;6.33;;;1.23;;
14858;SDS011;7521;51.700;6.874;2022-09-16T10:48:41;6.83;;;0.87;;
14858;SDS011;7521;51.700;6.874;2022-09-16T10:51:47;3.43;;;0.80;;
14858;SDS011;7521;51.700;6.874;2022-09-16T10:54:52;6.78;;;0.75;;
14858;SDS011;7521;51.700;6.874;2022-09-16T10:58:08;6.53;;;1.17;;
14858;SDS011;7521;51.700;6.874;2022-09-16T11:01:36;3.47;;;0.73;;
14858;SDS011;7521;51.700;6.874;2022-09-16T11:08:11;3.53;;;0.80;;
14858;SDS011;7521;51.700;6.874;2022-09-16T11:11:28;6.07;;;1.00;;
14858;SDS011;7521;51.700;6.874;2022-09-16T11:20:52;7.47;;;1.42;;
14858;SDS011;7521;51.700;6.874;2022-09-16T11:24:06;6.40;;;1.07;;
14858;SDS011;7521;51.700;6.874;2022-09-16T11:30:22;4.37;;;0.90;;
14858;SDS011;7521;51.700;6.874;2022-09-16T11:33:31;5.93;;;0.90;;
14858;SDS011;7521;51.700;6.874;2022-09-16T11:46:46;15.40;;;1.40;;
14858;SDS011;7521;51.700;6.874;2022-09-16T11:50:01;3.83;;;0.60;;
14858;SDS011;7521;51.700;6.874;2022-09-16T11:56:51;4.20;;;1.07;;
14858;SDS011;7521;51.700;6.874;2022-09-16T12:00:04;8.13;;;1.10;;
14858;SDS011;7521;51.700;6.874;2022-09-16T12:03:22;3.73;;;0.60;;
14858;SDS011;7521;51.700;6.874;2022-09-16T12:06:35;5.10;;;1.03;;
14858;SDS011;7521;51.700;6.874;2022-09-16T12:09:47;3.27;;;0.73;;
14858;SDS011;7521;51.700;6.874;2022-09-16T12:12:54;6.90;;;0.77;;
14858;SDS011;7521;51.700;6.874;2022-09-16T12:16:03;1.90;;;0.37;;
14858;SDS011;7521;51.700;6.874;2022-09-16T12:19:10;7.13;;;1.27;;
14858;SDS011;7521;51.700;6.874;2022-09-16T12:22:19;6.10;;;0.90;;
14858;SDS011;7521;51.700;6.874;2022-09-16T12:25:27;5.30;;;0.80;;
14858;SDS011;7521;51.700;6.874;2022-09-16T12:34:51;4.90;;;0.90;;
14858;SDS011;7521;51.700;6.874;2022-09-16T12:37:59;6.53;;;0.77;;
14858;SDS011;7521;51.700;6.874;2022-09-16T12:41:09;4.00;;;0.87;;
14858;SDS011;7521;51.700;6.874;2022-09-16T12:47:51;5.30;;;1.03;;
14858;SDS011;7521;51.700;6.874;2022-09-16T13:01:20;2.67;;;0.47;;
14858;SDS011;7521;51.700;6.874;2022-09-16T13:04:29;2.00;;;0.53;;
14858;SDS011;7521;51.700;6.874;2022-09-16T13:07:35;4.23;;;0.40;;
14858;SDS011;7521;51.700;6.874;2022-09-16T13:10:41;1.73;;;0.40;;
14858;SDS011;7521;51.700;6.874;2022-09-16T13:13:47;1.67;;;0.30;;
14858;SDS011;7521;51.700;6.874;2022-09-16T13:16:54;1.47;;;0.40;;
14858;SDS011;7521;51.700;6.874;2022-09-16T13:20:04;2.20;;;0.40;;
14858;SDS011;7521;51.700;6.874;2022-09-16T13:23:17;1.67;;;0.50;;
14858;SDS011;7521;51.700;6.874;2022-09-16T13:26:23;2.57;;;0.40;;
14858;SDS011;7521;51.700;6.874;2022-09-16T13:29:41;1.88;;;0.40;;
14858;SDS011;7521;51.700;6.874;2022-09-16T13:36:03;2.30;;;0.67;;
14858;SDS011;7521;51.700;6.874;2022-09-16T13:39:26;1.80;;;0.33;;
14858;SDS011;7521;51.700;6.874;2022-09-16T13:42:32;1.40;;;0.50;;
14858;SDS011;7521;51.700;6.874;2022-09-16T13:45:39;1.15;;;0.40;;
14858;SDS011;7521;51.700;6.874;2022-09-16T13:48:45;2.10;;;0.80;;
14858;SDS011;7521;51.700;6.874;2022-09-16T13:51:55;3.50;;;0.60;;
14858;SDS011;7521;51.700;6.874;2022-09-16T13:55:02;2.22;;;0.68;;
14858;SDS011;7521;51.700;6.874;2022-09-16T14:01:46;1.87;;;0.70;;
14858;SDS011;7521;51.700;6.874;2022-09-16T14:14:50;5.00;;;0.70;;
14858;SDS011;7521;51.700;6.874;2022-09-16T14:17:57;4.50;;;0.87;;
14858;SDS011;7521;51.700;6.874;2022-09-16T14:21:04;4.87;;;0.93;;
14858;SDS011;7521;51.700;6.874;2022-09-16T14:24:16;4.93;;;1.00;;
14858;SDS011;7521;51.700;6.874;2022-09-16T14:27:29;3.53;;;0.70;;
14858;SDS011;7521;51.700;6.874;2022-09-16T14:30:34;3.27;;;0.80;;
14858;SDS011;7521;51.700;6.874;2022-09-16T14:33:59;4.40;;;1.27;;
14858;SDS011;7521;51.700;6.874;2022-09-16T14:37:06;5.27;;;0.90;;
14858;SDS011;7521;51.700;6.874;2022-09-16T14:40:15;5.10;;;0.77;;
14858;SDS011;7521;51.700;6.874;2022-09-16T14:43:21;6.90;;;1.10;;
14858;SDS011;7521;51.700;6.874;2022-09-16T14:46:26;4.37;;;0.70;;
14858;SDS011;7521;51.700;6.874;2022-09-16T14:49:33;8.45;;;1.00;;
14858;SDS011;7521;51.700;6.874;2022-09-16T14:52:39;4.50;;;1.40;;
14858;SDS011;7521;51.700;6.874;2022-09-16T14:55:47;5.43;;;1.55;;
14858;SDS011;7521;51.700;6.874;2022-09-16T14:58:52;12.40;;;1.20;;
14858;SDS011;7521;51.700;6.874;2022-09-16T15:02:02;7.73;;;1.20;;
14858;SDS011;7521;51.700;6.874;2022-09-16T15:05:19;5.63;;;1.23;;
14858;SDS011;7521;51.700;6.874;2022-09-16T15:08:30;4.50;;;1.23;;
14858;SDS011;7521;51.700;6.874;2022-09-16T15:11:43;10.07;;;1.40;;
14858;SDS011;7521;51.700;6.874;2022-09-16T15:14:49;6.20;;;1.07;;
14858;SDS011;7521;51.700;6.874;2022-09-16T15:18:02;9.83;;;1.67;;
14858;SDS011;7521;51.700;6.874;2022-09-16T15:21:16;4.13;;;1.10;;
14858;SDS011;7521;51.700;6.874;2022-09-16T15:24:23;4.37;;;1.00;;
14858;SDS011;7521;51.700;6.874;2022-09-16T15:27:29;4.67;;;0.87;;
14858;SDS011;7521;51.700;6.874;2022-09-16T15:30:43;6.60;;;1.43;;
14858;SDS011;7521;51.700;6.874;2022-09-16T15:33:50;5.03;;;0.97;;
14858;SDS011;7521;51.700;6.874;2022-09-16T15:36:56;2.50;;;0.70;;
14858;SDS011;7521;51.700;6.874;2022-09-16T15:40:09;2.97;;;0.70;;
14858;SDS011;7521;51.700;6.874;2022-09-16T15:46:20;4.10;;;1.25;;
14858;SDS011;7521;51.700;6.874;2022-09-16T15:49:26;4.03;;;0.80;;
14858;SDS011;7521;51.700;6.874;2022-09-16T15:52:33;4.53;;;0.63;;
14858;SDS011;7521;51.700;6.874;2022-09-16T15:58:45;3.70;;;0.70;;
14858;SDS011;7521;51.700;6.874;2022-09-16T16:01:51;2.73;;;1.00;;
14858;SDS011;7521;51.700;6.874;2022-09-16T16:05:21;2.40;;;0.70;;
14858;SDS011;7521;51.700;6.874;2022-09-16T16:08:37;2.90;;;0.80;;
14858;SDS011;7521;51.700;6.874;2022-09-16T16:11:43;2.80;;;0.80;;
14858;SDS011;7521;51.700;6.874;2022-09-16T16:14:49;3.15;;;0.55;;
14858;SDS011;7521;51.700;6.874;2022-09-16T16:17:56;2.37;;;1.13;;
14858;SDS011;7521;51.700;6.874;2022-09-16T16:21:06;4.83;;;0.57;;
14858;SDS011;7521;51.700;6.874;2022-09-16T16:24:14;4.10;;;0.80;;
14858;SDS011;7521;51.700;6.874;2022-09-16T16:27:19;3.80;;;0.63;;
14858;SDS011;7521;51.700;6.874;2022-09-16T16:30:24;3.85;;;0.50;;
14858;SDS011;7521;51.700;6.874;2022-09-16T16:33:29;2.42;;;0.52;;
14858;SDS011;7521;51.700;6.874;2022-09-16T16:36:35;2.88;;;0.90;;
14858;SDS011;7521;51.700;6.874;2022-09-16T16:39:40;0.90;;;0.40;;
14858;SDS011;7521;51.700;6.874;2022-09-16T16:42:45;5.90;;;0.93;;
14858;SDS011;7521;51.700;6.874;2022-09-16T16:45:54;2.92;;;0.98;;
14858;SDS011;7521;51.700;6.874;2022-09-16T16:48:59;3.43;;;0.80;;
14858;SDS011;7521;51.700;6.874;2022-09-16T16:52:04;3.08;;;0.95;;
14858;SDS011;7521;51.700;6.874;2022-09-16T16:55:10;3.57;;;0.60;;
14858;SDS011;7521;51.700;6.874;2022-09-16T16:58:15;3.93;;;1.40;;
14858;SDS011;7521;51.700;6.874;2022-09-16T17:01:21;4.87;;;1.33;;
14858;SDS011;7521;51.700;6.874;2022-09-16T17:04:26;5.68;;;2.10;;
14858;SDS011;7521;51.700;6.874;2022-09-16T17:07:31;6.73;;;2.30;;
14858;SDS011;7521;51.700;6.874;2022-09-16T17:10:36;5.18;;;1.25;;
14858;SDS011;7521;51.700;6.874;2022-09-16T17:13:43;5.83;;;1.03;;
14858;SDS011;7521;51.700;6.874;2022-09-16T17:16:49;4.67;;;0.90;;
14858;SDS011;7521;51.700;6.874;2022-09-16T17:19:54;4.73;;;1.10;;
14858;SDS011;7521;51.700;6.874;2022-09-16T17:22:59;5.07;;;1.05;;
14858;SDS011;7521;51.700;6.874;2022-09-16T17:26:05;5.37;;;1.10;;
14858;SDS011;7521;51.700;6.874;2022-09-16T17:29:11;8.63;;;1.20;;
14858;SDS011;7521;51.700;6.874;2022-09-16T17:32:16;4.80;;;1.43;;
14858;SDS011;7521;51.700;6.874;2022-09-16T17:35:21;5.67;;;1.00;;
14858;SDS011;7521;51.700;6.874;2022-09-16T17:38:29;5.10;;;1.23;;
14858;SDS011;7521;51.700;6.874;2022-09-16T17:41:34;7.10;;;1.00;;
14858;SDS011;7521;51.700;6.874;2022-09-16T17:44:39;6.50;;;1.07;;
14858;SDS011;7521;51.700;6.874;2022-09-16T17:47:45;4.40;;;1.20;;
14858;SDS011;7521;51.700;6.874;2022-09-16T17:50:50;6.93;;;1.00;;
14858;SDS011;7521;51.700;6.874;2022-09-16T17:53:56;5.17;;;1.00;;
14858;SDS011;7521;51.700;6.874;2022-09-16T17:57:01;5.50;;;1.50;;
14858;SDS011;7521;51.700;6.874;2022-09-16T18:00:06;4.45;;;0.88;;
14858;SDS011;7521;51.700;6.874;2022-09-16T18:03:11;4.37;;;1.00;;
14858;SDS011;7521;51.700;6.874;2022-09-16T18:06:18;8.07;;;1.47;;
14858;SDS011;7521;51.700;6.874;2022-09-16T18:09:23;7.77;;;1.37;;
14858;SDS011;7521;51.700;6.874;2022-09-16T18:12:29;6.30;;;1.07;;
14858;SDS011;7521;51.700;6.874;2022-09-16T18:15:34;5.25;;;1.10;;
14858;SDS011;7521;51.700;6.874;2022-09-16T18:18:40;9.90;;;1.13;;
14858;SDS011;7521;51.700;6.874;2022-09-16T18:21:45;7.63;;;1.53;;
14858;SDS011;7521;51.700;6.874;2022-09-16T18:24:50;8.23;;;1.10;;
14858;SDS011;7521;51.700;6.874;2022-09-16T18:27:56;8.18;;;1.98;;
14858;SDS011;7521;51.700;6.874;2022-09-16T18:31:09;5.83;;;1.70;;
14858;SDS011;7521;51.700;6.874;2022-09-16T18:34:15;10.70;;;1.70;;
14858;SDS011;7521;51.700;6.874;2022-09-16T18:37:21;10.53;;;1.67;;
14858;SDS011;7521;51.700;6.874;2022-09-16T18:40:26;8.57;;;1.75;;
14858;SDS011;7521;51.700;6.874;2022-09-16T18:43:31;7.35;;;1.23;;
14858;SDS011;7521;51.700;6.874;2022-09-16T18:46:36;12.13;;;1.50;;
14858;SDS011;7521;51.700;6.874;2022-09-16T18:49:41;13.00;;;2.03;;
14858;SDS011;7521;51.700;6.874;2022-09-16T18:52:47;8.23;;;1.70;;
14858;SDS011;7521;51.700;6.874;2022-09-16T18:55:52;12.45;;;1.67;;
14858;SDS011;7521;51.700;6.874;2022-09-16T18:58:58;7.30;;;2.17;;
14858;SDS011;7521;51.700;6.874;2022-09-16T19:02:04;8.57;;;1.67;;
14858;SDS011;7521;51.700;6.874;2022-09-16T19:05:12;11.67;;;2.07;;
14858;SDS011;7521;51.700;6.874;2022-09-16T19:08:17;9.90;;;2.13;;
14858;SDS011;7521;51.700;6.874;2022-09-16T19:11:22;8.63;;;2.13;;
14858;SDS011;7521;51.700;6.874;2022-09-16T19:14:28;9.23;;;1.90;;
14858;SDS011;7521;51.700;6.874;2022-09-16T19:17:34;11.27;;;2.13;;
14858;SDS011;7521;51.700;6.874;2022-09-16T19:20:42;11.47;;;4.17;;
14858;SDS011;7521;51.700;6.874;2022-09-16T19:23:52;12.00;;;5.70;;
14858;SDS011;7521;51.700;6.874;2022-09-16T19:26:57;15.43;;;7.20;;
14858;SDS011;7521;51.700;6.874;2022-09-16T19:30:03;16.50;;;6.45;;
14858;SDS011;7521;51.700;6.874;2022-09-16T19:33:09;9.77;;;3.13;;
14858;SDS011;7521;51.700;6.874;2022-09-16T19:36:19;13.03;;;3.73;;
14858;SDS011;7521;51.700;6.874;2022-09-16T19:39:25;10.87;;;2.63;;
14858;SDS011;7521;51.700;6.874;2022-09-16T19:42:31;9.50;;;1.87;;
14858;SDS011;7521;51.700;6.874;2022-09-16T19:45:36;14.63;;;2.03;;
14858;SDS011;7521;51.700;6.874;2022-09-16T19:48:43;8.15;;;1.63;;
14858;SDS011;7521;51.700;6.874;2022-09-16T19:51:49;7.93;;;1.60;;
14858;SDS011;7521;51.700;6.874;2022-09-16T19:54:56;7.77;;;2.20;;
14858;SDS011;7521;51.700;6.874;2022-09-16T19:58:01;10.93;;;2.03;;
14858;SDS011;7521;51.700;6.874;2022-09-16T20:01:08;6.87;;;1.63;;
14858;SDS011;7521;51.700;6.874;2022-09-16T20:04:14;8.93;;;1.80;;
14858;SDS011;7521;51.700;6.874;2022-09-16T20:07:23;9.30;;;1.93;;
14858;SDS011;7521;51.700;6.874;2022-09-16T20:10:28;8.13;;;1.85;;
14858;SDS011;7521;51.700;6.874;2022-09-16T20:13:34;9.77;;;1.83;;
14858;SDS011;7521;51.700;6.874;2022-09-16T20:16:39;10.90;;;1.90;;
14858;SDS011;7521;51.700;6.874;2022-09-16T20:19:45;7.87;;;2.30;;
14858;SDS011;7521;51.700;6.874;2022-09-16T20:22:50;10.23;;;2.77;;
14858;SDS011;7521;51.700;6.874;2022-09-16T20:25:56;12.90;;;3.50;;
14858;SDS011;7521;51.700;6.874;2022-09-16T20:29:02;10.33;;;2.70;;
14858;SDS011;7521;51.700;6.874;2022-09-16T20:32:07;10.70;;;1.70;;
14858;SDS011;7521;51.700;6.874;2022-09-16T20:35:12;8.23;;;1.73;;
14858;SDS011;7521;51.700;6.874;2022-09-16T20:38:18;14.30;;;2.30;;
14858;SDS011;7521;51.700;6.874;2022-09-16T20:41:24;11.20;;;2.27;;
14858;SDS011;7521;51.700;6.874;2022-09-16T20:44:29;6.53;;;1.60;;
14858;SDS011;7521;51.700;6.874;2022-09-16T20:47:35;8.70;;;1.70;;
14858;SDS011;7521;51.700;6.874;2022-09-16T20:50:40;9.43;;;2.08;;
14858;SDS011;7521;51.700;6.874;2022-09-16T20:53:52;9.32;;;1.85;;
14858;SDS011;7521;51.700;6.874;2022-09-16T20:56:57;10.27;;;2.17;;
14858;SDS011;7521;51.700;6.874;2022-09-16T21:00:02;9.23;;;2.00;;
14858;SDS011;7521;51.700;6.874;2022-09-16T21:03:10;10.77;;;1.90;;
14858;SDS011;7521;51.700;6.874;2022-09-16T21:06:15;11.40;;;2.93;;
14858;SDS011;7521;51.700;6.874;2022-09-16T21:09:20;6.57;;;1.90;;
14858;SDS011;7521;51.700;6.874;2022-09-16T21:12:26;6.17;;;1.90;;
14858;SDS011;7521;51.700;6.874;2022-09-16T21:15:33;9.17;;;1.67;;
14858;SDS011;7521;51.700;6.874;2022-09-16T21:18:38;10.75;;;2.38;;
14858;SDS011;7521;51.700;6.874;2022-09-16T21:21:44;11.70;;;2.07;;
14858;SDS011;7521;51.700;6.874;2022-09-16T21:24:51;9.10;;;2.30;;